Terminal Aerodrome Forecast
Issued by NWS

Home | Current Version | Previous Version | Text Only | Print | Product List | Glossary On
Versions: 1 2 3 4 5 6 7 8 9 10 11 12 13 14
000
FTUS42 TJSJ 281700
TAFJMZ
TAF
TJMZ 281729Z 2818/2918 25009KT P6SM VCSH FEW025 SCT040
     FM282300 07003KT P6SM FEW030 SCT060
     FM291530 27010KT P6SM SCT025 BKN040
      AMD NOT SKED 2823/2916=

USA.gov is the U.S. government's official web portal to all federal, state and local government web resources and services.